sensor_id;sensor_type;location;lat;lon;timestamp;P1;durP1;ratioP1;P2;durP2;ratioP2
15643;SDS011;7921;43.586;1.408;2022-07-23T00:01:55;2.95;;;2.30;;
15643;SDS011;7921;43.586;1.408;2022-07-23T00:04:20;3.03;;;1.95;;
15643;SDS011;7921;43.586;1.408;2022-07-23T00:06:46;7.03;;;2.67;;
15643;SDS011;7921;43.586;1.408;2022-07-23T00:09:11;2.10;;;1.90;;
15643;SDS011;7921;43.586;1.408;2022-07-23T00:11:36;3.08;;;2.28;;
15643;SDS011;7921;43.586;1.408;2022-07-23T00:14:02;3.47;;;2.10;;
15643;SDS011;7921;43.586;1.408;2022-07-23T00:16:27;3.35;;;2.30;;
15643;SDS011;7921;43.586;1.408;2022-07-23T00:18:52;2.92;;;1.92;;
15643;SDS011;7921;43.586;1.408;2022-07-23T00:21:18;2.13;;;1.63;;
15643;SDS011;7921;43.586;1.408;2022-07-23T00:23:43;2.95;;;1.88;;
15643;SDS011;7921;43.586;1.408;2022-07-23T00:26:09;4.05;;;1.63;;
15643;SDS011;7921;43.586;1.408;2022-07-23T00:28:34;2.13;;;1.73;;
15643;SDS011;7921;43.586;1.408;2022-07-23T00:30:59;2.30;;;1.90;;
15643;SDS011;7921;43.586;1.408;2022-07-23T00:33:25;4.05;;;2.00;;
15643;SDS011;7921;43.586;1.408;2022-07-23T00:35:50;6.20;;;2.20;;
15643;SDS011;7921;43.586;1.408;2022-07-23T00:38:15;14.43;;;5.68;;
15643;SDS011;7921;43.586;1.408;2022-07-23T00:40:41;6.13;;;3.38;;
15643;SDS011;7921;43.586;1.408;2022-07-23T00:43:07;5.97;;;3.03;;
15643;SDS011;7921;43.586;1.408;2022-07-23T00:45:32;6.28;;;3.20;;
15643;SDS011;7921;43.586;1.408;2022-07-23T00:47:58;3.65;;;3.10;;
15643;SDS011;7921;43.586;1.408;2022-07-23T00:50:23;4.47;;;2.83;;
15643;SDS011;7921;43.586;1.408;2022-07-23T00:52:49;4.75;;;3.00;;
15643;SDS011;7921;43.586;1.408;2022-07-23T00:55:14;4.47;;;2.80;;
15643;SDS011;7921;43.586;1.408;2022-07-23T00:57:40;3.60;;;2.60;;
15643;SDS011;7921;43.586;1.408;2022-07-23T01:00:07;4.10;;;2.65;;
15643;SDS011;7921;43.586;1.408;2022-07-23T01:02:35;5.05;;;2.75;;
15643;SDS011;7921;43.586;1.408;2022-07-23T01:05:01;4.57;;;3.05;;
15643;SDS011;7921;43.586;1.408;2022-07-23T01:07:27;3.90;;;2.45;;
15643;SDS011;7921;43.586;1.408;2022-07-23T01:09:53;4.00;;;2.63;;
15643;SDS011;7921;43.586;1.408;2022-07-23T01:12:19;3.42;;;2.88;;
15643;SDS011;7921;43.586;1.408;2022-07-23T01:14:44;5.15;;;2.63;;
15643;SDS011;7921;43.586;1.408;2022-07-23T01:17:10;4.90;;;2.70;;
15643;SDS011;7921;43.586;1.408;2022-07-23T01:19:35;3.10;;;2.60;;
15643;SDS011;7921;43.586;1.408;2022-07-23T01:22:01;3.92;;;2.70;;
15643;SDS011;7921;43.586;1.408;2022-07-23T01:24:29;3.58;;;2.85;;
15643;SDS011;7921;43.586;1.408;2022-07-23T01:26:54;3.35;;;3.03;;
15643;SDS011;7921;43.586;1.408;2022-07-23T01:29:20;2.83;;;2.55;;
15643;SDS011;7921;43.586;1.408;2022-07-23T01:31:46;3.08;;;2.38;;
15643;SDS011;7921;43.586;1.408;2022-07-23T01:34:12;4.25;;;2.85;;
15643;SDS011;7921;43.586;1.408;2022-07-23T01:36:38;4.22;;;2.83;;
15643;SDS011;7921;43.586;1.408;2022-07-23T01:39:04;2.72;;;2.33;;
15643;SDS011;7921;43.586;1.408;2022-07-23T01:41:29;3.10;;;2.63;;
15643;SDS011;7921;43.586;1.408;2022-07-23T01:43:55;3.83;;;2.65;;
15643;SDS011;7921;43.586;1.408;2022-07-23T01:46:20;6.47;;;2.63;;
15643;SDS011;7921;43.586;1.408;2022-07-23T01:48:46;4.82;;;2.92;;
15643;SDS011;7921;43.586;1.408;2022-07-23T01:51:11;3.00;;;2.53;;
15643;SDS011;7921;43.586;1.408;2022-07-23T01:53:37;3.33;;;3.03;;
15643;SDS011;7921;43.586;1.408;2022-07-23T01:56:02;2.92;;;2.42;;
15643;SDS011;7921;43.586;1.408;2022-07-23T01:58:28;4.45;;;2.65;;
15643;SDS011;7921;43.586;1.408;2022-07-23T02:00:54;2.97;;;2.42;;
15643;SDS011;7921;43.586;1.408;2022-07-23T02:03:20;3.03;;;2.33;;
15643;SDS011;7921;43.586;1.408;2022-07-23T02:05:45;4.30;;;2.90;;
15643;SDS011;7921;43.586;1.408;2022-07-23T02:08:11;3.80;;;2.58;;
15643;SDS011;7921;43.586;1.408;2022-07-23T02:10:36;3.70;;;2.55;;
15643;SDS011;7921;43.586;1.408;2022-07-23T02:13:02;4.10;;;2.50;;
15643;SDS011;7921;43.586;1.408;2022-07-23T02:15:27;3.50;;;2.38;;
15643;SDS011;7921;43.586;1.408;2022-07-23T02:17:53;3.55;;;2.60;;
15643;SDS011;7921;43.586;1.408;2022-07-23T02:20:19;4.35;;;3.05;;
15643;SDS011;7921;43.586;1.408;2022-07-23T02:22:44;3.40;;;2.63;;
15643;SDS011;7921;43.586;1.408;2022-07-23T02:25:10;2.88;;;2.42;;
15643;SDS011;7921;43.586;1.408;2022-07-23T02:27:35;4.50;;;2.80;;
15643;SDS011;7921;43.586;1.408;2022-07-23T02:30:02;5.20;;;2.58;;
15643;SDS011;7921;43.586;1.408;2022-07-23T02:32:27;4.15;;;2.63;;
15643;SDS011;7921;43.586;1.408;2022-07-23T02:34:53;3.75;;;2.72;;
15643;SDS011;7921;43.586;1.408;2022-07-23T02:37:18;3.53;;;2.70;;
15643;SDS011;7921;43.586;1.408;2022-07-23T02:39:44;3.30;;;2.45;;
15643;SDS011;7921;43.586;1.408;2022-07-23T02:42:09;3.58;;;3.03;;
15643;SDS011;7921;43.586;1.408;2022-07-23T02:44:35;2.58;;;2.38;;
15643;SDS011;7921;43.586;1.408;2022-07-23T02:47:00;5.35;;;2.72;;
15643;SDS011;7921;43.586;1.408;2022-07-23T02:49:26;3.75;;;3.03;;
15643;SDS011;7921;43.586;1.408;2022-07-23T02:51:51;6.13;;;2.53;;
15643;SDS011;7921;43.586;1.408;2022-07-23T02:54:17;3.88;;;2.40;;
15643;SDS011;7921;43.586;1.408;2022-07-23T02:56:42;3.40;;;2.28;;
15643;SDS011;7921;43.586;1.408;2022-07-23T02:59:08;3.13;;;2.17;;
15643;SDS011;7921;43.586;1.408;2022-07-23T03:01:33;4.00;;;2.20;;
15643;SDS011;7921;43.586;1.408;2022-07-23T03:03:59;5.78;;;2.60;;
15643;SDS011;7921;43.586;1.408;2022-07-23T03:06:24;4.07;;;2.30;;
15643;SDS011;7921;43.586;1.408;2022-07-23T03:08:50;6.03;;;2.63;;
15643;SDS011;7921;43.586;1.408;2022-07-23T03:11:15;5.90;;;2.47;;
15643;SDS011;7921;43.586;1.408;2022-07-23T03:13:41;3.38;;;2.33;;
15643;SDS011;7921;43.586;1.408;2022-07-23T03:16:06;3.35;;;2.50;;
15643;SDS011;7921;43.586;1.408;2022-07-23T03:18:32;4.88;;;2.55;;
15643;SDS011;7921;43.586;1.408;2022-07-23T03:20:58;3.30;;;2.65;;
15643;SDS011;7921;43.586;1.408;2022-07-23T03:23:23;4.25;;;2.63;;
15643;SDS011;7921;43.586;1.408;2022-07-23T03:25:49;2.78;;;2.50;;
15643;SDS011;7921;43.586;1.408;2022-07-23T03:28:14;4.05;;;2.65;;
15643;SDS011;7921;43.586;1.408;2022-07-23T03:30:41;3.90;;;2.63;;
15643;SDS011;7921;43.586;1.408;2022-07-23T03:33:07;4.38;;;2.95;;
15643;SDS011;7921;43.586;1.408;2022-07-23T03:35:32;3.65;;;2.80;;
15643;SDS011;7921;43.586;1.408;2022-07-23T03:37:58;6.38;;;2.60;;
15643;SDS011;7921;43.586;1.408;2022-07-23T03:40:23;5.15;;;2.47;;
15643;SDS011;7921;43.586;1.408;2022-07-23T03:42:48;5.22;;;2.40;;
15643;SDS011;7921;43.586;1.408;2022-07-23T03:45:14;3.25;;;2.67;;
15643;SDS011;7921;43.586;1.408;2022-07-23T03:47:39;3.72;;;2.92;;
15643;SDS011;7921;43.586;1.408;2022-07-23T03:50:05;3.08;;;2.80;;
15643;SDS011;7921;43.586;1.408;2022-07-23T03:52:31;3.88;;;3.00;;
15643;SDS011;7921;43.586;1.408;2022-07-23T03:54:56;3.45;;;2.72;;
15643;SDS011;7921;43.586;1.408;2022-07-23T03:57:21;4.72;;;2.78;;
15643;SDS011;7921;43.586;1.408;2022-07-23T03:59:47;3.50;;;2.47;;
15643;SDS011;7921;43.586;1.408;2022-07-23T04:02:12;3.65;;;2.88;;
15643;SDS011;7921;43.586;1.408;2022-07-23T04:04:38;3.40;;;2.78;;
15643;SDS011;7921;43.586;1.408;2022-07-23T04:07:03;4.87;;;3.10;;
15643;SDS011;7921;43.586;1.408;2022-07-23T04:09:28;5.68;;;3.00;;
15643;SDS011;7921;43.586;1.408;2022-07-23T04:11:54;6.90;;;3.40;;
15643;SDS011;7921;43.586;1.408;2022-07-23T04:14:19;3.90;;;2.63;;
15643;SDS011;7921;43.586;1.408;2022-07-23T04:16:45;2.90;;;2.60;;
15643;SDS011;7921;43.586;1.408;2022-07-23T04:19:10;7.93;;;3.47;;
15643;SDS011;7921;43.586;1.408;2022-07-23T04:21:35;4.18;;;2.90;;
15643;SDS011;7921;43.586;1.408;2022-07-23T04:24:01;5.25;;;3.15;;
15643;SDS011;7921;43.586;1.408;2022-07-23T04:26:26;3.47;;;3.05;;
15643;SDS011;7921;43.586;1.408;2022-07-23T04:28:52;4.20;;;2.75;;
15643;SDS011;7921;43.586;1.408;2022-07-23T04:31:17;5.32;;;2.85;;
15643;SDS011;7921;43.586;1.408;2022-07-23T04:33:43;3.85;;;3.33;;
15643;SDS011;7921;43.586;1.408;2022-07-23T04:36:08;3.75;;;2.63;;
15643;SDS011;7921;43.586;1.408;2022-07-23T04:38:33;3.00;;;2.67;;
15643;SDS011;7921;43.586;1.408;2022-07-23T04:40:59;4.10;;;3.17;;
15643;SDS011;7921;43.586;1.408;2022-07-23T04:43:25;4.80;;;2.95;;
15643;SDS011;7921;43.586;1.408;2022-07-23T04:45:50;4.90;;;3.13;;
15643;SDS011;7921;43.586;1.408;2022-07-23T04:48:15;5.10;;;2.83;;
15643;SDS011;7921;43.586;1.408;2022-07-23T04:50:41;4.18;;;2.80;;
15643;SDS011;7921;43.586;1.408;2022-07-23T04:53:07;4.38;;;3.30;;
15643;SDS011;7921;43.586;1.408;2022-07-23T04:55:33;4.72;;;2.97;;
15643;SDS011;7921;43.586;1.408;2022-07-23T04:57:58;5.32;;;3.03;;
15643;SDS011;7921;43.586;1.408;2022-07-23T05:00:23;3.33;;;2.55;;
15643;SDS011;7921;43.586;1.408;2022-07-23T05:02:49;3.90;;;3.00;;
15643;SDS011;7921;43.586;1.408;2022-07-23T05:05:14;6.60;;;3.00;;
15643;SDS011;7921;43.586;1.408;2022-07-23T05:07:40;3.83;;;3.17;;
15643;SDS011;7921;43.586;1.408;2022-07-23T05:10:05;5.03;;;3.05;;
15643;SDS011;7921;43.586;1.408;2022-07-23T05:12:31;4.13;;;3.40;;
15643;SDS011;7921;43.586;1.408;2022-07-23T05:14:57;5.57;;;3.55;;
15643;SDS011;7921;43.586;1.408;2022-07-23T05:17:23;3.78;;;2.70;;
15643;SDS011;7921;43.586;1.408;2022-07-23T05:19:48;3.55;;;2.70;;
15643;SDS011;7921;43.586;1.408;2022-07-23T05:22:13;3.28;;;2.67;;
15643;SDS011;7921;43.586;1.408;2022-07-23T05:24:39;5.93;;;2.63;;
15643;SDS011;7921;43.586;1.408;2022-07-23T05:27:04;4.63;;;2.85;;
15643;SDS011;7921;43.586;1.408;2022-07-23T05:29:30;3.72;;;2.70;;
15643;SDS011;7921;43.586;1.408;2022-07-23T05:31:55;3.88;;;2.60;;
15643;SDS011;7921;43.586;1.408;2022-07-23T05:34:20;4.05;;;2.90;;
15643;SDS011;7921;43.586;1.408;2022-07-23T05:36:46;4.55;;;3.03;;
15643;SDS011;7921;43.586;1.408;2022-07-23T05:39:11;3.17;;;2.20;;
15643;SDS011;7921;43.586;1.408;2022-07-23T05:41:36;4.32;;;2.80;;
15643;SDS011;7921;43.586;1.408;2022-07-23T05:44:02;4.10;;;2.55;;
15643;SDS011;7921;43.586;1.408;2022-07-23T05:46:27;3.13;;;2.40;;
15643;SDS011;7921;43.586;1.408;2022-07-23T05:48:53;5.15;;;2.55;;
15643;SDS011;7921;43.586;1.408;2022-07-23T05:51:19;4.95;;;2.80;;
15643;SDS011;7921;43.586;1.408;2022-07-23T05:53:46;3.83;;;2.28;;
15643;SDS011;7921;43.586;1.408;2022-07-23T05:56:11;4.18;;;2.70;;
15643;SDS011;7921;43.586;1.408;2022-07-23T05:58:37;4.82;;;2.50;;
15643;SDS011;7921;43.586;1.408;2022-07-23T06:01:02;4.47;;;4.07;;
15643;SDS011;7921;43.586;1.408;2022-07-23T06:03:27;2.95;;;2.70;;
15643;SDS011;7921;43.586;1.408;2022-07-23T06:05:53;3.65;;;2.63;;
15643;SDS011;7921;43.586;1.408;2022-07-23T06:08:18;5.47;;;3.00;;
15643;SDS011;7921;43.586;1.408;2022-07-23T06:10:43;3.38;;;2.63;;
15643;SDS011;7921;43.586;1.408;2022-07-23T06:13:09;3.30;;;2.30;;
15643;SDS011;7921;43.586;1.408;2022-07-23T06:15:34;3.58;;;2.30;;
15643;SDS011;7921;43.586;1.408;2022-07-23T06:18:00;4.82;;;2.60;;
15643;SDS011;7921;43.586;1.408;2022-07-23T06:20:25;3.85;;;2.10;;
15643;SDS011;7921;43.586;1.408;2022-07-23T06:22:50;5.30;;;2.50;;
15643;SDS011;7921;43.586;1.408;2022-07-23T06:25:16;2.83;;;2.20;;
15643;SDS011;7921;43.586;1.408;2022-07-23T06:27:41;3.50;;;2.40;;
15643;SDS011;7921;43.586;1.408;2022-07-23T06:30:07;2.55;;;2.30;;
15643;SDS011;7921;43.586;1.408;2022-07-23T06:32:33;2.40;;;2.20;;
15643;SDS011;7921;43.586;1.408;2022-07-23T06:34:58;2.20;;;1.98;;
15643;SDS011;7921;43.586;1.408;2022-07-23T06:37:24;4.63;;;2.33;;
15643;SDS011;7921;43.586;1.408;2022-07-23T06:39:49;3.53;;;2.38;;
15643;SDS011;7921;43.586;1.408;2022-07-23T06:42:14;5.63;;;2.35;;
15643;SDS011;7921;43.586;1.408;2022-07-23T06:44:40;4.78;;;2.45;;
15643;SDS011;7921;43.586;1.408;2022-07-23T06:47:05;3.10;;;2.33;;
15643;SDS011;7921;43.586;1.408;2022-07-23T06:49:31;4.05;;;2.25;;
15643;SDS011;7921;43.586;1.408;2022-07-23T06:51:56;4.90;;;2.13;;
15643;SDS011;7921;43.586;1.408;2022-07-23T06:54:22;2.60;;;2.10;;
15643;SDS011;7921;43.586;1.408;2022-07-23T06:56:47;3.40;;;2.15;;
15643;SDS011;7921;43.586;1.408;2022-07-23T06:59:13;3.42;;;2.40;;
15643;SDS011;7921;43.586;1.408;2022-07-23T07:01:39;2.05;;;1.83;;
15643;SDS011;7921;43.586;1.408;2022-07-23T07:04:04;4.25;;;2.25;;
15643;SDS011;7921;43.586;1.408;2022-07-23T07:06:30;2.67;;;1.88;;
15643;SDS011;7921;43.586;1.408;2022-07-23T07:08:55;2.85;;;2.45;;
15643;SDS011;7921;43.586;1.408;2022-07-23T07:11:21;3.80;;;2.20;;
15643;SDS011;7921;43.586;1.408;2022-07-23T07:13:48;3.10;;;2.08;;
15643;SDS011;7921;43.586;1.408;2022-07-23T07:16:14;3.65;;;2.05;;
15643;SDS011;7921;43.586;1.408;2022-07-23T07:18:39;4.60;;;2.72;;
15643;SDS011;7921;43.586;1.408;2022-07-23T07:21:05;3.05;;;2.20;;
15643;SDS011;7921;43.586;1.408;2022-07-23T07:23:30;2.60;;;2.33;;
15643;SDS011;7921;43.586;1.408;2022-07-23T07:25:55;4.45;;;2.50;;
15643;SDS011;7921;43.586;1.408;2022-07-23T07:28:21;3.25;;;2.28;;
15643;SDS011;7921;43.586;1.408;2022-07-23T07:30:46;2.03;;;1.80;;
15643;SDS011;7921;43.586;1.408;2022-07-23T07:33:11;2.60;;;2.13;;
15643;SDS011;7921;43.586;1.408;2022-07-23T07:35:37;3.25;;;2.40;;
15643;SDS011;7921;43.586;1.408;2022-07-23T07:38:02;4.55;;;2.13;;
15643;SDS011;7921;43.586;1.408;2022-07-23T07:40:28;4.15;;;2.22;;
15643;SDS011;7921;43.586;1.408;2022-07-23T07:42:53;4.28;;;2.50;;
15643;SDS011;7921;43.586;1.408;2022-07-23T07:45:20;3.20;;;1.90;;
15643;SDS011;7921;43.586;1.408;2022-07-23T07:47:46;5.47;;;2.05;;
15643;SDS011;7921;43.586;1.408;2022-07-23T07:50:12;2.15;;;1.83;;
15643;SDS011;7921;43.586;1.408;2022-07-23T07:52:38;3.88;;;2.15;;
15643;SDS011;7921;43.586;1.408;2022-07-23T07:55:03;2.22;;;1.77;;
15643;SDS011;7921;43.586;1.408;2022-07-23T07:57:29;3.20;;;1.90;;
15643;SDS011;7921;43.586;1.408;2022-07-23T07:59:55;5.55;;;2.30;;
15643;SDS011;7921;43.586;1.408;2022-07-23T08:02:20;5.13;;;2.63;;
15643;SDS011;7921;43.586;1.408;2022-07-23T08:04:45;3.08;;;1.98;;
15643;SDS011;7921;43.586;1.408;2022-07-23T08:07:11;3.00;;;1.90;;
15643;SDS011;7921;43.586;1.408;2022-07-23T08:09:36;3.80;;;2.00;;
15643;SDS011;7921;43.586;1.408;2022-07-23T08:12:02;2.92;;;1.70;;
15643;SDS011;7921;43.586;1.408;2022-07-23T08:14:27;3.25;;;1.65;;
15643;SDS011;7921;43.586;1.408;2022-07-23T08:16:53;4.38;;;1.92;;
15643;SDS011;7921;43.586;1.408;2022-07-23T08:19:18;5.38;;;1.85;;
15643;SDS011;7921;43.586;1.408;2022-07-23T08:21:43;3.60;;;1.83;;
15643;SDS011;7921;43.586;1.408;2022-07-23T08:24:09;1.73;;;1.63;;
15643;SDS011;7921;43.586;1.408;2022-07-23T08:26:34;2.45;;;1.88;;
15643;SDS011;7921;43.586;1.408;2022-07-23T08:29:00;4.75;;;2.10;;
15643;SDS011;7921;43.586;1.408;2022-07-23T08:31:25;2.67;;;1.85;;
15643;SDS011;7921;43.586;1.408;2022-07-23T08:33:50;3.28;;;1.80;;
15643;SDS011;7921;43.586;1.408;2022-07-23T08:36:17;5.90;;;1.85;;
15643;SDS011;7921;43.586;1.408;2022-07-23T08:38:42;5.50;;;2.42;;
15643;SDS011;7921;43.586;1.408;2022-07-23T08:41:08;3.90;;;1.88;;
15643;SDS011;7921;43.586;1.408;2022-07-23T08:43:34;2.15;;;1.70;;
15643;SDS011;7921;43.586;1.408;2022-07-23T08:46:01;3.50;;;2.03;;
15643;SDS011;7921;43.586;1.408;2022-07-23T08:48:31;3.85;;;1.75;;
15643;SDS011;7921;43.586;1.408;2022-07-23T08:50:59;2.53;;;1.70;;
15643;SDS011;7921;43.586;1.408;2022-07-23T08:53:26;2.35;;;1.40;;
15643;SDS011;7921;43.586;1.408;2022-07-23T08:55:53;2.97;;;1.75;;
15643;SDS011;7921;43.586;1.408;2022-07-23T08:58:20;2.08;;;1.50;;
15643;SDS011;7921;43.586;1.408;2022-07-23T09:00:46;2.08;;;1.70;;
15643;SDS011;7921;43.586;1.408;2022-07-23T09:03:17;2.95;;;1.67;;
15643;SDS011;7921;43.586;1.408;2022-07-23T09:05:44;2.92;;;1.50;;
15643;SDS011;7921;43.586;1.408;2022-07-23T09:08:11;3.22;;;1.58;;
15643;SDS011;7921;43.586;1.408;2022-07-23T09:15:52;2.45;;;1.33;;
15643;SDS011;7921;43.586;1.408;2022-07-23T09:18:19;2.78;;;1.60;;
15643;SDS011;7921;43.586;1.408;2022-07-23T09:20:44;1.55;;;1.38;;
15643;SDS011;7921;43.586;1.408;2022-07-23T09:23:10;2.53;;;1.50;;
15643;SDS011;7921;43.586;1.408;2022-07-23T09:25:35;2.70;;;1.55;;
15643;SDS011;7921;43.586;1.408;2022-07-23T09:28:01;1.50;;;1.20;;
15643;SDS011;7921;43.586;1.408;2022-07-23T09:30:32;2.45;;;1.40;;
15643;SDS011;7921;43.586;1.408;2022-07-23T09:33:06;2.65;;;1.48;;
15643;SDS011;7921;43.586;1.408;2022-07-23T09:35:48;2.25;;;1.48;;
15643;SDS011;7921;43.586;1.408;2022-07-23T09:38:18;1.58;;;1.30;;
15643;SDS011;7921;43.586;1.408;2022-07-23T09:40:45;4.32;;;1.10;;
15643;SDS011;7921;43.586;1.408;2022-07-23T09:43:12;2.47;;;1.23;;
15643;SDS011;7921;43.586;1.408;2022-07-23T09:45:38;1.40;;;1.17;;
15643;SDS011;7921;43.586;1.408;2022-07-23T09:48:14;2.75;;;1.25;;
15643;SDS011;7921;43.586;1.408;2022-07-23T09:50:43;3.25;;;1.10;;
15643;SDS011;7921;43.586;1.408;2022-07-23T09:53:09;3.78;;;1.45;;
15643;SDS011;7921;43.586;1.408;2022-07-23T09:55:36;1.60;;;1.20;;
15643;SDS011;7921;43.586;1.408;2022-07-23T09:58:05;3.55;;;1.42;;
15643;SDS011;7921;43.586;1.408;2022-07-23T10:00:33;2.50;;;1.30;;
15643;SDS011;7921;43.586;1.408;2022-07-23T10:02:59;1.92;;;1.40;;
15643;SDS011;7921;43.586;1.408;2022-07-23T10:05:25;1.60;;;1.20;;
15643;SDS011;7921;43.586;1.408;2022-07-23T10:07:51;2.17;;;1.42;;
15643;SDS011;7921;43.586;1.408;2022-07-23T10:10:17;1.48;;;1.30;;
15643;SDS011;7921;43.586;1.408;2022-07-23T10:12:43;1.75;;;1.27;;
15643;SDS011;7921;43.586;1.408;2022-07-23T10:15:09;2.47;;;1.27;;
15643;SDS011;7921;43.586;1.408;2022-07-23T10:17:35;1.75;;;1.30;;
15643;SDS011;7921;43.586;1.408;2022-07-23T10:20:00;3.65;;;1.33;;
15643;SDS011;7921;43.586;1.408;2022-07-23T10:22:30;2.53;;;1.17;;
15643;SDS011;7921;43.586;1.408;2022-07-23T10:30:21;1.35;;;0.93;;
15643;SDS011;7921;43.586;1.408;2022-07-23T10:38:58;1.83;;;0.85;;
15643;SDS011;7921;43.586;1.408;2022-07-23T10:41:31;1.73;;;1.10;;
15643;SDS011;7921;43.586;1.408;2022-07-23T10:44:17;1.30;;;1.00;;
15643;SDS011;7921;43.586;1.408;2022-07-23T10:47:02;1.65;;;1.05;;
15643;SDS011;7921;43.586;1.408;2022-07-23T10:49:34;5.75;;;3.85;;
15643;SDS011;7921;43.586;1.408;2022-07-23T10:57:16;0.60;;;0.60;;
15643;SDS011;7921;43.586;1.408;2022-07-23T11:02:41;1.63;;;0.88;;
15643;SDS011;7921;43.586;1.408;2022-07-23T11:05:08;3.20;;;1.00;;
15643;SDS011;7921;43.586;1.408;2022-07-23T11:07:36;0.98;;;0.70;;
15643;SDS011;7921;43.586;1.408;2022-07-23T11:10:02;2.75;;;0.90;;
15643;SDS011;7921;43.586;1.408;2022-07-23T11:15:06;1.80;;;0.90;;
15643;SDS011;7921;43.586;1.408;2022-07-23T11:25:08;1.75;;;0.77;;
15643;SDS011;7921;43.586;1.408;2022-07-23T11:27:38;1.20;;;0.88;;
15643;SDS011;7921;43.586;1.408;2022-07-23T11:30:04;1.60;;;0.80;;
15643;SDS011;7921;43.586;1.408;2022-07-23T11:32:32;1.15;;;0.90;;
15643;SDS011;7921;43.586;1.408;2022-07-23T11:35:06;2.45;;;1.38;;
15643;SDS011;7921;43.586;1.408;2022-07-23T11:37:47;1.65;;;1.05;;
15643;SDS011;7921;43.586;1.408;2022-07-23T11:40:14;2.60;;;1.10;;
15643;SDS011;7921;43.586;1.408;2022-07-23T11:43:00;2.63;;;1.88;;
15643;SDS011;7921;43.586;1.408;2022-07-23T11:45:31;1.17;;;0.90;;
15643;SDS011;7921;43.586;1.408;2022-07-23T11:48:01;1.70;;;1.25;;
15643;SDS011;7921;43.586;1.408;2022-07-23T11:50:28;1.73;;;1.00;;
15643;SDS011;7921;43.586;1.408;2022-07-23T11:52:54;8.00;;;3.95;;
15643;SDS011;7921;43.586;1.408;2022-07-23T11:55:19;4.43;;;1.48;;
15643;SDS011;7921;43.586;1.408;2022-07-23T11:57:46;7.53;;;4.57;;
15643;SDS011;7921;43.586;1.408;2022-07-23T12:00:12;6.13;;;3.00;;
15643;SDS011;7921;43.586;1.408;2022-07-23T12:02:43;2.80;;;1.20;;
15643;SDS011;7921;43.586;1.408;2022-07-23T12:05:11;1.77;;;1.35;;
15643;SDS011;7921;43.586;1.408;2022-07-23T12:07:39;1.45;;;1.00;;
15643;SDS011;7921;43.586;1.408;2022-07-23T12:10:12;3.25;;;1.45;;
15643;SDS011;7921;43.586;1.408;2022-07-23T12:12:47;1.20;;;1.10;;
15643;SDS011;7921;43.586;1.408;2022-07-23T12:15:17;1.75;;;1.45;;
15643;SDS011;7921;43.586;1.408;2022-07-23T12:17:46;1.95;;;1.30;;
15643;SDS011;7921;43.586;1.408;2022-07-23T12:20:13;2.00;;;1.08;;
15643;SDS011;7921;43.586;1.408;2022-07-23T12:22:42;1.52;;;1.30;;
15643;SDS011;7921;43.586;1.408;2022-07-23T12:25:13;2.13;;;1.15;;
15643;SDS011;7921;43.586;1.408;2022-07-23T12:27:38;1.23;;;1.13;;
15643;SDS011;7921;43.586;1.408;2022-07-23T12:30:21;3.85;;;1.35;;
15643;SDS011;7921;43.586;1.408;2022-07-23T12:32:51;2.90;;;1.40;;
15643;SDS011;7921;43.586;1.408;2022-07-23T12:35:18;1.33;;;1.20;;
15643;SDS011;7921;43.586;1.408;2022-07-23T12:37:45;1.95;;;1.38;;
15643;SDS011;7921;43.586;1.408;2022-07-23T12:43:25;3.00;;;1.40;;
15643;SDS011;7921;43.586;1.408;2022-07-23T12:48:31;1.67;;;1.40;;
15643;SDS011;7921;43.586;1.408;2022-07-23T12:50:58;2.15;;;1.70;;
15643;SDS011;7921;43.586;1.408;2022-07-23T12:56:01;3.00;;;1.38;;
15643;SDS011;7921;43.586;1.408;2022-07-23T12:58:52;2.00;;;1.25;;
15643;SDS011;7921;43.586;1.408;2022-07-23T13:03:54;1.83;;;1.40;;
15643;SDS011;7921;43.586;1.408;2022-07-23T13:06:40;2.55;;;1.55;;
15643;SDS011;7921;43.586;1.408;2022-07-23T13:09:17;2.33;;;1.58;;
15643;SDS011;7921;43.586;1.408;2022-07-23T13:11:44;3.05;;;1.52;;
15643;SDS011;7921;43.586;1.408;2022-07-23T13:14:11;2.10;;;1.60;;
15643;SDS011;7921;43.586;1.408;2022-07-23T13:16:37;2.03;;;1.60;;
15643;SDS011;7921;43.586;1.408;2022-07-23T13:19:03;1.83;;;1.63;;
15643;SDS011;7921;43.586;1.408;2022-07-23T13:21:28;2.78;;;2.25;;
15643;SDS011;7921;43.586;1.408;2022-07-23T13:23:54;4.47;;;4.00;;
15643;SDS011;7921;43.586;1.408;2022-07-23T13:26:20;2.30;;;1.55;;
15643;SDS011;7921;43.586;1.408;2022-07-23T13:28:45;2.55;;;1.27;;
15643;SDS011;7921;43.586;1.408;2022-07-23T13:31:11;4.35;;;1.63;;
15643;SDS011;7921;43.586;1.408;2022-07-23T13:33:36;3.42;;;1.55;;
15643;SDS011;7921;43.586;1.408;2022-07-23T13:36:02;1.90;;;1.55;;
15643;SDS011;7921;43.586;1.408;2022-07-23T13:38:28;2.80;;;1.63;;
15643;SDS011;7921;43.586;1.408;2022-07-23T13:40:54;2.55;;;1.63;;
15643;SDS011;7921;43.586;1.408;2022-07-23T13:43:20;2.78;;;1.70;;
15643;SDS011;7921;43.586;1.408;2022-07-23T13:45:48;2.15;;;1.63;;
15643;SDS011;7921;43.586;1.408;2022-07-23T13:48:14;3.13;;;1.70;;
15643;SDS011;7921;43.586;1.408;2022-07-23T13:50:40;3.25;;;2.00;;
15643;SDS011;7921;43.586;1.408;2022-07-23T13:53:07;6.00;;;1.88;;
15643;SDS011;7921;43.586;1.408;2022-07-23T13:55:34;3.13;;;1.85;;
15643;SDS011;7921;43.586;1.408;2022-07-23T13:58:00;1.65;;;1.50;;
15643;SDS011;7921;43.586;1.408;2022-07-23T14:00:26;2.60;;;1.88;;
15643;SDS011;7921;43.586;1.408;2022-07-23T14:02:52;4.07;;;1.60;;
15643;SDS011;7921;43.586;1.408;2022-07-23T14:05:18;3.00;;;1.48;;
15643;SDS011;7921;43.586;1.408;2022-07-23T14:07:43;2.35;;;1.60;;
15643;SDS011;7921;43.586;1.408;2022-07-23T14:10:09;3.65;;;1.90;;
15643;SDS011;7921;43.586;1.408;2022-07-23T14:12:35;2.72;;;2.30;;
15643;SDS011;7921;43.586;1.408;2022-07-23T14:15:01;2.63;;;1.80;;
15643;SDS011;7921;43.586;1.408;2022-07-23T14:17:27;2.50;;;1.70;;
15643;SDS011;7921;43.586;1.408;2022-07-23T14:19:53;2.00;;;1.80;;
15643;SDS011;7921;43.586;1.408;2022-07-23T14:22:18;2.15;;;1.60;;
15643;SDS011;7921;43.586;1.408;2022-07-23T14:24:44;1.90;;;1.70;;
15643;SDS011;7921;43.586;1.408;2022-07-23T14:27:09;2.72;;;1.55;;
15643;SDS011;7921;43.586;1.408;2022-07-23T14:29:34;2.50;;;1.92;;
15643;SDS011;7921;43.586;1.408;2022-07-23T14:32:01;1.83;;;1.48;;
15643;SDS011;7921;43.586;1.408;2022-07-23T14:34:27;2.92;;;1.88;;
15643;SDS011;7921;43.586;1.408;2022-07-23T14:36:53;2.40;;;1.88;;
15643;SDS011;7921;43.586;1.408;2022-07-23T14:39:18;1.98;;;1.60;;
15643;SDS011;7921;43.586;1.408;2022-07-23T14:41:44;2.33;;;1.70;;
15643;SDS011;7921;43.586;1.408;2022-07-23T14:44:09;2.65;;;1.65;;
15643;SDS011;7921;43.586;1.408;2022-07-23T14:46:35;2.88;;;1.90;;
15643;SDS011;7921;43.586;1.408;2022-07-23T14:49:01;6.10;;;2.05;;
15643;SDS011;7921;43.586;1.408;2022-07-23T14:51:27;2.50;;;1.70;;
15643;SDS011;7921;43.586;1.408;2022-07-23T14:53:52;2.85;;;1.80;;
15643;SDS011;7921;43.586;1.408;2022-07-23T14:56:18;4.07;;;1.80;;
15643;SDS011;7921;43.586;1.408;2022-07-23T14:58:43;2.20;;;1.80;;
15643;SDS011;7921;43.586;1.408;2022-07-23T15:01:09;3.13;;;1.60;;
15643;SDS011;7921;43.586;1.408;2022-07-23T15:03:34;2.78;;;1.60;;
15643;SDS011;7921;43.586;1.408;2022-07-23T15:06:00;1.60;;;1.48;;
15643;SDS011;7921;43.586;1.408;2022-07-23T15:08:25;2.88;;;1.75;;
15643;SDS011;7921;43.586;1.408;2022-07-23T15:10:51;3.45;;;1.70;;
15643;SDS011;7921;43.586;1.408;2022-07-23T15:13:16;5.03;;;1.90;;
15643;SDS011;7921;43.586;1.408;2022-07-23T15:15:42;3.95;;;1.63;;
15643;SDS011;7921;43.586;1.408;2022-07-23T15:18:07;1.98;;;1.67;;
15643;SDS011;7921;43.586;1.408;2022-07-23T15:20:33;3.22;;;1.65;;
15643;SDS011;7921;43.586;1.408;2022-07-23T15:22:58;2.50;;;1.75;;
15643;SDS011;7921;43.586;1.408;2022-07-23T15:25:24;2.55;;;1.90;;
15643;SDS011;7921;43.586;1.408;2022-07-23T15:27:49;3.42;;;1.75;;
15643;SDS011;7921;43.586;1.408;2022-07-23T15:30:15;3.38;;;2.10;;
15643;SDS011;7921;43.586;1.408;2022-07-23T15:32:40;2.88;;;2.05;;
15643;SDS011;7921;43.586;1.408;2022-07-23T15:35:06;2.15;;;1.92;;
15643;SDS011;7921;43.586;1.408;2022-07-23T15:37:33;1.80;;;1.50;;
15643;SDS011;7921;43.586;1.408;2022-07-23T15:39:58;3.80;;;1.75;;
15643;SDS011;7921;43.586;1.408;2022-07-23T15:42:24;2.00;;;1.65;;